createdAt,value
2018-12-06T00:00:56.446Z,0.00
2018-12-06T00:01:56.586Z,0.00
2018-12-06T00:02:56.808Z,0.00
2018-12-06T00:03:56.337Z,0.00
2018-12-06T00:04:56.395Z,0.00
2018-12-06T00:05:56.357Z,0.00
2018-12-06T00:06:56.331Z,0.00
2018-12-06T00:07:56.555Z,0.00
2018-12-06T00:08:56.343Z,0.00
2018-12-06T00:09:56.283Z,0.00
2018-12-06T00:10:56.269Z,0.00
2018-12-06T00:11:56.333Z,0.00
2018-12-06T00:12:56.681Z,0.00
2018-12-06T00:13:56.203Z,0.00
2018-12-06T00:14:58.047Z,0.00
2018-12-06T00:15:56.639Z,0.00
2018-12-06T00:16:56.190Z,0.00
2018-12-06T00:17:56.152Z,0.00
2018-12-06T00:18:56.382Z,0.00
2018-12-06T00:19:56.411Z,0.00
2018-12-06T00:20:56.590Z,0.00
2018-12-06T00:21:56.364Z,0.00
2018-12-06T00:22:56.202Z,0.00
2018-12-06T00:23:56.223Z,0.00
2018-12-06T00:24:56.177Z,0.00
2018-12-06T00:25:56.661Z,0.00
2018-12-06T00:26:58.114Z,0.00
2018-12-06T00:27:56.358Z,0.00
2018-12-06T00:28:56.287Z,0.00
2018-12-06T00:29:56.278Z,0.00
2018-12-06T00:30:56.259Z,0.00
2018-12-06T00:31:56.093Z,0.00
2018-12-06T00:32:56.034Z,0.00
2018-12-06T00:33:56.527Z,0.00
2018-12-06T00:34:56.000Z,0.00
2018-12-06T00:35:55.990Z,0.00
2018-12-06T00:36:55.980Z,0.00
2018-12-06T00:37:55.978Z,0.00
2018-12-06T00:38:56.021Z,0.00
2018-12-06T00:39:56.016Z,0.00
2018-12-06T00:40:55.937Z,0.00
2018-12-06T00:41:55.963Z,0.00
2018-12-06T00:42:55.939Z,0.00
2018-12-06T00:43:55.898Z,0.00
2018-12-06T00:44:55.918Z,0.00
2018-12-06T00:45:55.891Z,0.00
2018-12-06T00:46:55.899Z,0.00
2018-12-06T00:47:55.914Z,0.00
2018-12-06T00:48:55.888Z,0.00
2018-12-06T00:49:55.914Z,0.00
2018-12-06T00:50:55.895Z,0.00
2018-12-06T00:51:55.836Z,0.00
2018-12-06T00:52:55.817Z,0.00
2018-12-06T00:53:55.843Z,0.00
2018-12-06T00:54:55.771Z,0.00
2018-12-06T00:55:55.777Z,0.00
2018-12-06T00:56:55.767Z,0.00
2018-12-06T00:57:55.744Z,0.00
2018-12-06T00:58:56.315Z,0.00
2018-12-06T00:59:55.720Z,0.00
2018-12-06T01:00:55.740Z,0.00
2018-12-06T01:01:55.740Z,0.00
2018-12-06T01:02:55.706Z,0.00
2018-12-06T01:03:55.750Z,0.00
2018-12-06T01:04:55.698Z,0.00
2018-12-06T01:05:55.693Z,0.00
2018-12-06T01:06:55.696Z,0.00
2018-12-06T01:07:55.641Z,0.00
2018-12-06T01:08:55.653Z,0.00
2018-12-06T01:09:55.657Z,0.00
2018-12-06T01:10:55.668Z,0.00
2018-12-06T01:11:55.635Z,0.00
2018-12-06T01:12:55.634Z,0.00
2018-12-06T01:13:55.602Z,0.00
2018-12-06T01:14:55.575Z,0.00
2018-12-06T01:15:55.691Z,0.00
2018-12-06T01:16:55.582Z,0.00
2018-12-06T01:17:55.529Z,0.00
2018-12-06T01:18:55.540Z,0.00
2018-12-06T01:19:55.553Z,0.00
2018-12-06T01:20:55.524Z,0.00
2018-12-06T01:21:55.509Z,0.00
2018-12-06T01:22:55.518Z,0.00
2018-12-06T01:23:55.455Z,0.00
2018-12-06T01:24:55.449Z,0.00
2018-12-06T01:25:55.486Z,0.00
2018-12-06T01:26:55.476Z,0.00
2018-12-06T01:27:55.453Z,0.00
2018-12-06T01:28:55.462Z,0.00
2018-12-06T01:29:55.448Z,0.00
2018-12-06T01:30:55.487Z,0.00
2018-12-06T01:31:55.468Z,0.00
2018-12-06T01:32:55.436Z,0.00
2018-12-06T01:33:55.387Z,0.00
2018-12-06T01:34:55.378Z,0.00
2018-12-06T01:35:55.384Z,0.00
2018-12-06T01:36:55.354Z,0.00
2018-12-06T01:37:55.323Z,0.00
2018-12-06T01:38:55.352Z,0.00
2018-12-06T01:39:55.314Z,0.00
2018-12-06T01:40:55.322Z,0.00
2018-12-06T01:41:55.335Z,0.00
2018-12-06T01:42:55.284Z,0.00
2018-12-06T01:43:55.260Z,0.00
2018-12-06T01:44:55.261Z,0.00
2018-12-06T01:45:55.260Z,0.00
2018-12-06T01:46:55.271Z,0.00
2018-12-06T01:47:55.267Z,0.00
2018-12-06T01:48:55.213Z,0.00
2018-12-06T01:49:55.219Z,0.00
2018-12-06T01:50:55.237Z,0.00
2018-12-06T01:51:55.233Z,0.00
2018-12-06T01:52:55.229Z,0.00
2018-12-06T01:53:55.228Z,0.00
2018-12-06T01:54:55.163Z,0.00
2018-12-06T01:55:55.168Z,0.00
2018-12-06T01:56:55.136Z,0.00
2018-12-06T01:57:55.155Z,0.00
2018-12-06T01:58:55.156Z,0.00
2018-12-06T01:59:55.141Z,0.00
2018-12-06T02:00:55.195Z,0.00
2018-12-06T02:01:55.112Z,0.00
2018-12-06T02:02:55.334Z,0.00
2018-12-06T02:03:55.111Z,0.00
2018-12-06T02:04:55.062Z,0.00
2018-12-06T02:05:55.049Z,0.00
2018-12-06T02:06:55.100Z,0.00
2018-12-06T02:07:55.054Z,0.00
2018-12-06T02:08:55.044Z,0.00
2018-12-06T02:09:55.086Z,0.00
2018-12-06T02:10:54.994Z,0.00
2018-12-06T02:11:55.038Z,0.00
2018-12-06T02:12:55.048Z,0.00
2018-12-06T02:13:55.026Z,0.00
2018-12-06T02:14:54.976Z,0.00
2018-12-06T02:15:54.974Z,0.00
2018-12-06T02:16:55.003Z,0.00
2018-12-06T02:17:54.944Z,0.00
2018-12-06T02:18:54.928Z,0.00
2018-12-06T02:19:54.903Z,0.00
2018-12-06T02:20:54.972Z,0.00
2018-12-06T02:21:54.941Z,0.00
2018-12-06T02:22:54.926Z,0.00
2018-12-06T02:23:54.865Z,0.00
2018-12-06T02:24:54.876Z,0.00
2018-12-06T02:25:54.847Z,0.00
2018-12-06T02:26:54.856Z,0.00
2018-12-06T02:27:54.871Z,0.00
2018-12-06T02:28:54.867Z,0.00
2018-12-06T02:29:54.851Z,0.00
2018-12-06T02:30:54.812Z,0.00
2018-12-06T02:31:54.805Z,0.00
2018-12-06T02:32:55.032Z,0.00
2018-12-06T02:33:54.889Z,0.00
2018-12-06T02:34:54.748Z,0.00
2018-12-06T02:35:54.767Z,0.00
2018-12-06T02:36:54.795Z,0.00
2018-12-06T02:37:54.804Z,0.00
2018-12-06T02:38:54.754Z,0.00
2018-12-06T02:39:54.745Z,0.00
2018-12-06T02:40:54.799Z,0.00
2018-12-06T02:41:54.676Z,0.00
2018-12-06T02:42:54.714Z,0.00
2018-12-06T02:43:54.682Z,0.00
2018-12-06T02:44:54.695Z,0.00
2018-12-06T02:45:54.634Z,0.00
2018-12-06T02:46:54.701Z,0.00
2018-12-06T02:47:54.769Z,0.00
2018-12-06T02:48:54.615Z,0.00
2018-12-06T02:49:55.330Z,0.00
2018-12-06T02:50:54.616Z,0.00
2018-12-06T02:51:54.609Z,0.00
2018-12-06T02:52:54.567Z,0.00
2018-12-06T02:53:54.596Z,0.00
2018-12-06T02:54:54.562Z,0.00
2018-12-06T02:55:54.572Z,0.00
2018-12-06T02:56:54.516Z,0.00
2018-12-06T02:57:54.580Z,0.00
2018-12-06T02:58:55.413Z,0.00
2018-12-06T02:59:54.515Z,0.00
2018-12-06T03:00:54.539Z,0.00
2018-12-06T03:01:54.502Z,0.00
2018-12-06T03:02:54.452Z,0.00
2018-12-06T03:03:54.510Z,0.00
2018-12-06T03:04:54.455Z,0.00
2018-12-06T03:05:54.457Z,0.00
2018-12-06T03:06:54.471Z,0.00
2018-12-06T03:07:54.457Z,0.00
2018-12-06T03:08:54.459Z,0.00
2018-12-06T03:09:54.476Z,0.00
2018-12-06T03:10:54.448Z,0.00
2018-12-06T03:11:54.398Z,0.00
2018-12-06T03:12:54.394Z,0.00
2018-12-06T03:13:54.354Z,0.00
2018-12-06T03:14:54.357Z,0.00
2018-12-06T03:15:54.373Z,0.00
2018-12-06T03:16:54.359Z,0.00
2018-12-06T03:17:54.346Z,0.00
2018-12-06T03:18:54.322Z,0.00
2018-12-06T03:19:54.293Z,0.00
2018-12-06T03:20:54.310Z,0.00
2018-12-06T03:21:54.836Z,0.00
2018-12-06T03:22:54.305Z,0.00
2018-12-06T03:23:54.292Z,0.00
2018-12-06T03:24:54.273Z,0.00
2018-12-06T03:25:54.258Z,0.00
2018-12-06T03:26:54.221Z,0.00
2018-12-06T03:27:54.229Z,0.00
2018-12-06T03:28:54.232Z,0.00
2018-12-06T03:29:54.202Z,0.00
2018-12-06T03:30:54.208Z,0.00
2018-12-06T03:31:54.170Z,0.00
2018-12-06T03:32:54.178Z,0.00
2018-12-06T03:33:54.145Z,0.00
2018-12-06T03:34:54.168Z,0.00
2018-12-06T03:35:54.128Z,0.00
2018-12-06T03:36:54.153Z,0.00
2018-12-06T03:37:54.134Z,0.00
2018-12-06T03:38:54.092Z,0.00
2018-12-06T03:39:54.100Z,0.00
2018-12-06T03:40:54.082Z,0.00
2018-12-06T03:41:54.052Z,0.00
2018-12-06T03:42:54.092Z,0.00
2018-12-06T03:43:54.143Z,0.00
2018-12-06T03:44:54.051Z,0.00
2018-12-06T03:45:54.040Z,0.00
2018-12-06T03:46:54.001Z,0.00
2018-12-06T03:47:53.999Z,0.00
2018-12-06T03:48:54.009Z,0.00
2018-12-06T03:49:54.031Z,0.00
2018-12-06T03:50:54.026Z,0.00
2018-12-06T03:51:53.947Z,0.00
2018-12-06T03:52:53.995Z,0.00
2018-12-06T03:53:53.943Z,0.00
2018-12-06T03:54:53.961Z,0.00
2018-12-06T03:55:53.918Z,0.00
2018-12-06T03:56:53.945Z,0.00
2018-12-06T03:57:53.909Z,0.00
2018-12-06T03:58:53.907Z,0.00
2018-12-06T03:59:53.934Z,0.00
2018-12-06T04:00:53.883Z,0.00
2018-12-06T04:01:54.242Z,0.00
2018-12-06T04:02:53.916Z,0.00
2018-12-06T04:03:54.056Z,0.00
2018-12-06T04:04:53.827Z,0.00
2018-12-06T04:05:53.885Z,0.00
2018-12-06T04:06:56.330Z,0.00
2018-12-06T04:07:53.789Z,0.00
2018-12-06T04:08:53.787Z,0.00
2018-12-06T04:09:53.753Z,0.00
2018-12-06T04:10:53.765Z,0.00
2018-12-06T04:11:53.809Z,0.00
2018-12-06T04:12:53.799Z,0.00
2018-12-06T04:13:53.724Z,0.00
2018-12-06T04:14:53.735Z,0.00
2018-12-06T04:15:53.736Z,0.00
2018-12-06T04:16:54.492Z,0.00
2018-12-06T04:17:53.725Z,0.00
2018-12-06T04:18:53.686Z,0.00
2018-12-06T04:19:53.686Z,0.00
2018-12-06T04:20:53.676Z,0.00
2018-12-06T04:22:02.932Z,0.00
2018-12-06T04:22:53.636Z,0.00
2018-12-06T04:23:53.614Z,0.00
2018-12-06T04:24:53.637Z,0.00
2018-12-06T04:25:53.576Z,0.00
2018-12-06T04:26:53.562Z,0.00
2018-12-06T04:27:53.566Z,0.00
2018-12-06T04:28:53.956Z,0.00
2018-12-06T04:29:53.588Z,0.00
2018-12-06T04:30:53.554Z,0.00
2018-12-06T04:31:53.543Z,0.00
2018-12-06T04:34:10.898Z,0.00
2018-12-06T04:35:10.912Z,0.00
2018-12-06T04:36:10.872Z,0.00
2018-12-06T04:37:10.862Z,0.00
2018-12-06T04:38:10.865Z,0.00
2018-12-06T04:39:10.833Z,0.00
2018-12-06T04:40:10.851Z,0.00
2018-12-06T04:41:10.858Z,0.00
2018-12-06T04:42:10.803Z,0.00
2018-12-06T04:43:10.804Z,0.00
2018-12-06T04:44:10.790Z,0.00
2018-12-06T04:45:10.777Z,0.00
2018-12-06T04:46:10.766Z,0.00
2018-12-06T04:47:10.800Z,0.00
2018-12-06T04:48:10.750Z,0.00
2018-12-06T04:49:10.732Z,0.00
2018-12-06T04:50:10.724Z,0.00
2018-12-06T04:51:10.714Z,0.00
2018-12-06T04:52:10.712Z,0.00
2018-12-06T04:53:10.730Z,0.00
2018-12-06T04:54:10.691Z,0.00
2018-12-06T04:55:10.675Z,0.00
2018-12-06T04:56:10.693Z,0.00
2018-12-06T04:57:10.668Z,0.00
2018-12-06T04:58:10.654Z,0.00
2018-12-06T04:59:10.638Z,0.00
2018-12-06T05:00:10.628Z,0.00
2018-12-06T05:01:10.630Z,0.00
2018-12-06T05:02:10.602Z,0.00
2018-12-06T05:03:10.600Z,0.00
2018-12-06T05:04:10.573Z,0.00
2018-12-06T05:05:10.583Z,0.00
2018-12-06T05:06:10.591Z,0.00
2018-12-06T05:07:10.549Z,0.00
2018-12-06T05:08:10.542Z,0.00
2018-12-06T05:09:10.523Z,0.00
2018-12-06T05:10:10.520Z,0.00
2018-12-06T05:11:10.506Z,0.00
2018-12-06T05:12:10.531Z,0.00
2018-12-06T05:13:10.489Z,0.00
2018-12-06T05:14:10.474Z,0.00
2018-12-06T05:15:10.465Z,0.00
2018-12-06T05:16:10.454Z,0.00
2018-12-06T05:17:10.472Z,0.00
2018-12-06T05:18:10.443Z,0.00
2018-12-06T05:19:10.430Z,0.00
2018-12-06T05:20:10.416Z,0.00
2018-12-06T05:21:10.415Z,0.00
2018-12-06T05:22:10.433Z,0.00
2018-12-06T05:23:10.382Z,0.00
2018-12-06T05:24:10.371Z,0.00
2018-12-06T05:25:10.361Z,0.00
2018-12-06T05:26:10.347Z,0.00
2018-12-06T05:27:10.354Z,0.00
2018-12-06T05:28:10.358Z,0.00
2018-12-06T05:29:10.326Z,0.00
2018-12-06T05:30:10.309Z,0.00
2018-12-06T05:31:10.300Z,0.00
2018-12-06T05:32:10.369Z,0.00
2018-12-06T05:33:10.312Z,0.00
2018-12-06T05:34:10.278Z,0.00
2018-12-06T05:35:10.246Z,0.00
2018-12-06T05:36:10.247Z,0.00
2018-12-06T05:37:10.234Z,0.00
2018-12-06T05:38:10.225Z,0.00
2018-12-06T05:39:10.246Z,0.00
2018-12-06T05:40:10.216Z,0.00
2018-12-06T05:41:10.225Z,0.00
2018-12-06T05:42:10.186Z,0.00
2018-12-06T05:43:10.210Z,0.00
2018-12-06T05:44:10.168Z,0.00
2018-12-06T05:45:10.171Z,0.00
2018-12-06T05:46:10.151Z,0.00
2018-12-06T05:47:10.159Z,0.00
2018-12-06T05:48:10.125Z,0.00
2018-12-06T05:49:10.113Z,0.00
2018-12-06T05:50:10.103Z,0.00
2018-12-06T05:51:10.099Z,0.00
2018-12-06T05:52:10.255Z,0.00
2018-12-06T05:53:10.088Z,0.00
2018-12-06T05:54:10.064Z,0.00
2018-12-06T05:55:10.163Z,0.00
2018-12-06T05:56:10.048Z,0.00
2018-12-06T05:57:10.105Z,0.00
2018-12-06T05:58:10.014Z,0.00
2018-12-06T05:59:10.053Z,0.00
2018-12-06T06:00:10.008Z,0.00
2018-12-06T06:01:10.071Z,0.00
2018-12-06T06:02:09.983Z,0.00
2018-12-06T06:03:09.962Z,0.00
2018-12-06T06:04:10.001Z,0.00
2018-12-06T06:05:09.955Z,0.00
2018-12-06T06:06:09.941Z,0.00
2018-12-06T06:07:09.929Z,0.00
2018-12-06T06:08:09.938Z,0.00
2018-12-06T06:09:09.944Z,0.00
2018-12-06T06:10:09.955Z,0.00
2018-12-06T06:11:09.896Z,0.00
2018-12-06T06:12:09.945Z,0.00
2018-12-06T06:13:09.923Z,0.00
2018-12-06T06:14:11.649Z,0.00
2018-12-06T06:15:10.067Z,0.00
2018-12-06T06:16:09.893Z,0.00
2018-12-06T06:17:09.902Z,0.00
2018-12-06T06:18:09.820Z,0.00
2018-12-06T06:19:09.846Z,0.00
2018-12-06T06:20:09.805Z,0.00
2018-12-06T06:21:09.852Z,0.00
2018-12-06T06:22:09.783Z,0.00
2018-12-06T06:23:09.812Z,0.00
2018-12-06T06:24:09.766Z,0.00
2018-12-06T06:25:09.743Z,0.00
2018-12-06T06:26:09.745Z,0.00
2018-12-06T06:27:09.914Z,0.00
2018-12-06T06:28:09.775Z,0.00
2018-12-06T06:29:09.716Z,4.00
2018-12-06T06:30:09.755Z,4.00
2018-12-06T06:31:09.717Z,4.00
2018-12-06T06:32:09.738Z,4.00
2018-12-06T06:33:09.700Z,4.00
2018-12-06T06:34:09.908Z,0.00
2018-12-06T06:35:09.650Z,4.00
2018-12-06T06:36:09.643Z,4.00
2018-12-06T06:37:09.631Z,4.00
2018-12-06T06:38:09.835Z,4.00
2018-12-06T06:39:10.289Z,4.00
2018-12-06T06:40:09.646Z,8.00
2018-12-06T06:41:09.591Z,8.00
2018-12-06T06:42:09.598Z,8.00
2018-12-06T06:43:09.573Z,8.00
2018-12-06T06:44:09.603Z,12.00
2018-12-06T06:45:09.758Z,12.00
2018-12-06T06:46:09.528Z,16.00
2018-12-06T06:47:09.510Z,20.00
2018-12-06T06:48:09.513Z,20.00
2018-12-06T06:49:13.788Z,24.00
2018-12-06T06:50:09.535Z,32.00
2018-12-06T06:51:09.493Z,32.00
2018-12-06T06:52:09.535Z,36.00
2018-12-06T06:53:09.471Z,40.00
2018-12-06T06:54:09.461Z,48.00
2018-12-06T06:55:09.472Z,48.00
2018-12-06T06:56:09.495Z,52.00
2018-12-06T06:57:09.479Z,60.00
2018-12-06T06:58:09.405Z,64.00
2018-12-06T06:59:09.422Z,72.00
2018-12-06T07:00:09.437Z,84.00
2018-12-06T07:01:09.441Z,100.00
2018-12-06T07:02:09.438Z,112.00
2018-12-06T07:03:09.392Z,128.00
2018-12-06T07:04:09.375Z,144.00
2018-12-06T07:05:09.339Z,156.00
2018-12-06T07:06:09.390Z,168.00
2018-12-06T07:07:09.369Z,184.00
2018-12-06T07:08:09.306Z,188.00
2018-12-06T07:09:09.372Z,200.00
2018-12-06T07:10:09.386Z,212.00
2018-12-06T07:11:09.402Z,220.00
2018-12-06T07:12:09.296Z,232.00
2018-12-06T07:13:09.297Z,248.00
2018-12-06T07:14:09.335Z,264.00
2018-12-06T07:15:09.240Z,288.00
2018-12-06T07:16:09.373Z,308.00
2018-12-06T07:17:09.262Z,332.00
2018-12-06T07:18:09.204Z,360.00
2018-12-06T07:19:09.237Z,384.00
2018-12-06T07:20:09.222Z,408.00
2018-12-06T07:21:09.226Z,432.00
2018-12-06T07:22:09.196Z,452.00
2018-12-06T07:23:09.164Z,476.00
2018-12-06T07:24:09.176Z,500.00
2018-12-06T07:25:09.171Z,528.00
2018-12-06T07:26:09.157Z,548.00
2018-12-06T07:27:09.189Z,564.00
2018-12-06T07:28:09.103Z,584.00
2018-12-06T07:29:09.123Z,600.00
2018-12-06T07:30:12.459Z,616.00
2018-12-06T07:31:09.076Z,636.00
2018-12-06T07:32:09.054Z,660.00
2018-12-06T07:33:09.040Z,676.00
2018-12-06T07:34:09.040Z,704.00
2018-12-06T07:35:09.031Z,728.00
2018-12-06T07:36:09.040Z,756.00
2018-12-06T07:37:09.023Z,780.00
2018-12-06T07:38:09.002Z,804.00
2018-12-06T07:39:09.034Z,828.00
2018-12-06T07:40:08.993Z,848.00
2018-12-06T07:41:08.975Z,868.00
2018-12-06T07:42:08.970Z,884.00
2018-12-06T07:43:08.959Z,892.00
2018-12-06T07:44:08.942Z,884.00
2018-12-06T07:45:08.950Z,864.00
2018-12-06T07:46:08.915Z,828.00
2018-12-06T07:47:08.913Z,780.00
2018-12-06T07:48:08.901Z,756.00
2018-12-06T07:49:08.897Z,752.00
2018-12-06T07:50:08.906Z,772.00
2018-12-06T07:51:08.867Z,816.00
2018-12-06T07:52:08.862Z,880.00
2018-12-06T07:53:08.856Z,936.00
2018-12-06T07:54:08.844Z,996.00
2018-12-06T07:55:08.825Z,1032.00
2018-12-06T07:56:08.817Z,1068.00
2018-12-06T07:57:08.798Z,1104.00
2018-12-06T07:58:08.793Z,1136.00
2018-12-06T07:59:08.791Z,1152.00
2018-12-06T08:00:08.783Z,1172.00
2018-12-06T08:01:08.788Z,1204.00
2018-12-06T08:02:08.751Z,1248.00
2018-12-06T08:03:08.745Z,1292.00
2018-12-06T08:04:08.749Z,1364.00
2018-12-06T08:05:08.723Z,1400.00
2018-12-06T08:06:08.738Z,1400.00
2018-12-06T08:07:08.708Z,1484.00
2018-12-06T08:08:08.701Z,1508.00
2018-12-06T08:09:08.690Z,1500.00
2018-12-06T08:10:08.683Z,1476.00
2018-12-06T08:11:08.661Z,1388.00
2018-12-06T08:12:08.666Z,1324.00
2018-12-06T08:13:08.655Z,1312.00
2018-12-06T08:14:08.632Z,1300.00
2018-12-06T08:15:08.622Z,1288.00
2018-12-06T08:16:08.618Z,1284.00
2018-12-06T08:17:08.609Z,1316.00
2018-12-06T08:18:08.708Z,1360.00
2018-12-06T08:19:08.590Z,1388.00
2018-12-06T08:20:08.582Z,1416.00
2018-12-06T08:21:08.570Z,1416.00
2018-12-06T08:22:08.568Z,1420.00
2018-12-06T08:23:08.541Z,1440.00
2018-12-06T08:24:08.580Z,1468.00
2018-12-06T08:25:08.535Z,1504.00
2018-12-06T08:26:08.511Z,1544.00
2018-12-06T08:27:08.495Z,1580.00
2018-12-06T08:28:08.507Z,1604.00
2018-12-06T08:29:08.474Z,1612.00
2018-12-06T08:30:08.488Z,1624.00
2018-12-06T08:31:08.453Z,1652.00
2018-12-06T08:32:08.447Z,1688.00
2018-12-06T08:33:08.436Z,1700.00
2018-12-06T08:34:08.486Z,1748.00
2018-12-06T08:35:08.421Z,1800.00
2018-12-06T08:36:08.412Z,1832.00
2018-12-06T08:37:08.406Z,1848.00
2018-12-06T08:38:08.394Z,1844.00
2018-12-06T08:39:08.392Z,1868.00
2018-12-06T08:40:08.387Z,1864.00
2018-12-06T08:41:08.357Z,1844.00
2018-12-06T08:42:08.422Z,1844.00
2018-12-06T08:43:08.370Z,1820.00
2018-12-06T08:44:08.329Z,1820.00
2018-12-06T08:45:08.348Z,1836.00
2018-12-06T08:46:08.313Z,1832.00
2018-12-06T08:47:08.300Z,1824.00
2018-12-06T08:48:08.286Z,1808.00
2018-12-06T08:49:08.273Z,1824.00
2018-12-06T08:50:08.269Z,1888.00
2018-12-06T08:51:08.292Z,1976.00
2018-12-06T08:52:08.239Z,2028.00
2018-12-06T08:53:08.241Z,2088.00
2018-12-06T08:54:08.213Z,2144.00
2018-12-06T08:55:08.214Z,2156.00
2018-12-06T08:56:08.201Z,2148.00
2018-12-06T08:57:08.196Z,2176.00
2018-12-06T08:58:08.188Z,2160.00
2018-12-06T08:59:08.180Z,2116.00
2018-12-06T09:00:08.164Z,2088.00
2018-12-06T09:01:08.596Z,2120.00
2018-12-06T09:02:08.169Z,2184.00
2018-12-06T09:03:08.147Z,2188.00
2018-12-06T09:04:08.123Z,2072.00
2018-12-06T09:05:08.124Z,1916.00
2018-12-06T09:06:08.103Z,1728.00
2018-12-06T09:07:08.093Z,1636.00
2018-12-06T09:08:08.085Z,1644.00
2018-12-06T09:09:08.066Z,1688.00
2018-12-06T09:10:08.055Z,1740.00
2018-12-06T09:11:08.041Z,1740.00
2018-12-06T09:12:08.027Z,1740.00
2018-12-06T09:13:08.039Z,1780.00
2018-12-06T09:14:08.006Z,1872.00
2018-12-06T09:15:08.005Z,1980.00
2018-12-06T09:16:08.004Z,2016.00
2018-12-06T09:17:07.973Z,1992.00
2018-12-06T09:18:08.043Z,1928.00
2018-12-06T09:19:07.965Z,1896.00
2018-12-06T09:20:08.022Z,1812.00
2018-12-06T09:21:07.926Z,1708.00
2018-12-06T09:22:07.929Z,1648.00
2018-12-06T09:23:07.954Z,1640.00
2018-12-06T09:24:07.914Z,1684.00
2018-12-06T09:25:07.900Z,1724.00
2018-12-06T09:26:07.894Z,1716.00
2018-12-06T09:27:07.865Z,1680.00
2018-12-06T09:28:07.887Z,1616.00
2018-12-06T09:29:07.857Z,1564.00
2018-12-06T09:30:07.853Z,1544.00
2018-12-06T09:31:07.837Z,1528.00
2018-12-06T09:32:07.810Z,1540.00
2018-12-06T09:33:07.827Z,1536.00
2018-12-06T09:34:07.793Z,1544.00
2018-12-06T09:35:07.822Z,1560.00
2018-12-06T09:36:07.769Z,1572.00
2018-12-06T09:37:07.762Z,1624.00
2018-12-06T09:38:07.754Z,1640.00
2018-12-06T09:39:07.760Z,1608.00
2018-12-06T09:40:07.730Z,1552.00
2018-12-06T09:41:07.735Z,1488.00
2018-12-06T09:42:07.706Z,1436.00
2018-12-06T09:43:07.709Z,1368.00
2018-12-06T09:44:07.698Z,1372.00
2018-12-06T09:45:07.694Z,1424.00
2018-12-06T09:46:07.799Z,1456.00
2018-12-06T09:47:07.666Z,1452.00
2018-12-06T09:48:07.650Z,1436.00
2018-12-06T09:49:07.634Z,1392.00
2018-12-06T09:50:07.632Z,1336.00
2018-12-06T09:51:07.624Z,1296.00
2018-12-06T09:52:07.625Z,1312.00
2018-12-06T09:53:07.596Z,1368.00
2018-12-06T09:54:07.576Z,1428.00
2018-12-06T09:55:07.563Z,1412.00
2018-12-06T09:56:07.572Z,1336.00
2018-12-06T09:57:07.570Z,1276.00
2018-12-06T09:58:07.544Z,1256.00
2018-12-06T09:59:07.519Z,1256.00
2018-12-06T10:00:07.528Z,1288.00
2018-12-06T10:01:07.522Z,1328.00
2018-12-06T10:02:07.518Z,1444.00
2018-12-06T10:03:07.530Z,1616.00
2018-12-06T10:04:07.471Z,1676.00
2018-12-06T10:05:07.470Z,1596.00
2018-12-06T10:06:07.464Z,1524.00
2018-12-06T10:07:07.446Z,1492.00
2018-12-06T10:08:07.449Z,1428.00
2018-12-06T10:09:07.461Z,1408.00
2018-12-06T10:10:07.414Z,1464.00
2018-12-06T10:11:07.424Z,1488.00
2018-12-06T10:12:07.390Z,1436.00
2018-12-06T10:13:07.399Z,1360.00
2018-12-06T10:14:07.373Z,1284.00
2018-12-06T10:15:07.376Z,1216.00
2018-12-06T10:16:07.348Z,1216.00
2018-12-06T10:17:07.329Z,1196.00
2018-12-06T10:18:07.319Z,1148.00
2018-12-06T10:19:07.327Z,1124.00
2018-12-06T10:20:07.330Z,1084.00
2018-12-06T10:21:07.296Z,1120.00
2018-12-06T10:22:07.302Z,1176.00
2018-12-06T10:23:07.272Z,1240.00
2018-12-06T10:24:07.272Z,1308.00
2018-12-06T10:25:07.265Z,1412.00
2018-12-06T10:26:07.236Z,1564.00
2018-12-06T10:27:07.253Z,1656.00
2018-12-06T10:28:07.209Z,1708.00
2018-12-06T10:29:07.255Z,1776.00
2018-12-06T10:30:07.201Z,1756.00
2018-12-06T10:31:07.183Z,1764.00
2018-12-06T10:32:07.171Z,1768.00
2018-12-06T10:33:16.914Z,1728.00
2018-12-06T10:34:07.181Z,1672.00
2018-12-06T10:35:07.174Z,1664.00
2018-12-06T10:36:07.196Z,1660.00
2018-12-06T10:37:07.143Z,1656.00
2018-12-06T10:38:07.110Z,1644.00
2018-12-06T10:39:07.148Z,1596.00
2018-12-06T10:40:07.166Z,1552.00
2018-12-06T10:41:07.153Z,1592.00
2018-12-06T10:42:07.299Z,1732.00
2018-12-06T10:43:07.193Z,1864.00
2018-12-06T10:44:07.152Z,1992.00
2018-12-06T10:45:07.082Z,2096.00
2018-12-06T10:46:07.070Z,2212.00
2018-12-06T10:47:07.099Z,2280.00
2018-12-06T10:48:07.197Z,2272.00
2018-12-06T10:49:07.023Z,2260.00
2018-12-06T10:50:07.010Z,2236.00
2018-12-06T10:51:07.658Z,2268.00
2018-12-06T10:52:06.974Z,2332.00
2018-12-06T10:53:07.001Z,2484.00
2018-12-06T10:54:07.114Z,2756.00
2018-12-06T10:55:07.032Z,3104.00
2018-12-06T10:56:06.937Z,3740.00
2018-12-06T10:57:06.999Z,4456.00
2018-12-06T10:58:06.978Z,4560.00
2018-12-06T10:59:06.991Z,4312.00
2018-12-06T11:00:06.918Z,3824.00
2018-12-06T11:01:06.890Z,3528.00
2018-12-06T11:02:06.954Z,3476.00
2018-12-06T11:03:06.854Z,3388.00
2018-12-06T11:04:06.871Z,3304.00
2018-12-06T11:05:06.941Z,3324.00
2018-12-06T11:06:06.898Z,3508.00
2018-12-06T11:07:06.908Z,3660.00
2018-12-06T11:08:06.826Z,3832.00
2018-12-06T11:09:06.857Z,3884.00
2018-12-06T11:10:06.823Z,3612.00
2018-12-06T11:11:06.808Z,3304.00
2018-12-06T11:12:07.778Z,3256.00
2018-12-06T11:13:06.756Z,3284.00
2018-12-06T11:14:06.796Z,3372.00
2018-12-06T11:15:06.793Z,3700.00
2018-12-06T11:16:07.124Z,3980.00
2018-12-06T11:17:06.750Z,4220.00
2018-12-06T11:18:06.772Z,4544.00
2018-12-06T11:19:07.279Z,4716.00
2018-12-06T11:20:06.677Z,4580.00
2018-12-06T11:21:06.715Z,4432.00
2018-12-06T11:22:06.701Z,4388.00
2018-12-06T11:23:06.670Z,4308.00
2018-12-06T11:24:06.712Z,4280.00
2018-12-06T11:25:06.698Z,4316.00
2018-12-06T11:26:06.644Z,3968.00
2018-12-06T11:27:06.666Z,3660.00
2018-12-06T11:28:07.285Z,3360.00
2018-12-06T11:29:06.703Z,3064.00
2018-12-06T11:30:06.603Z,2844.00
2018-12-06T11:31:06.598Z,2632.00
2018-12-06T11:32:06.584Z,2328.00
2018-12-06T11:33:06.813Z,2068.00
2018-12-06T11:34:07.227Z,1924.00
2018-12-06T11:35:06.602Z,1880.00
2018-12-06T11:36:06.951Z,1804.00
2018-12-06T11:37:06.918Z,1660.00
2018-12-06T11:38:06.591Z,1524.00
2018-12-06T11:39:06.610Z,1608.00
2018-12-06T11:40:06.638Z,1804.00
2018-12-06T11:41:06.505Z,1732.00
2018-12-06T11:42:06.459Z,1672.00
2018-12-06T11:43:06.567Z,1756.00
2018-12-06T11:44:06.464Z,1924.00
2018-12-06T11:45:07.275Z,2008.00
2018-12-06T11:46:07.117Z,2132.00
2018-12-06T11:47:06.442Z,2260.00
2018-12-06T11:48:06.550Z,2024.00
2018-12-06T11:49:06.450Z,2044.00
2018-12-06T11:50:06.999Z,2088.00
2018-12-06T11:51:06.384Z,2196.00
2018-12-06T11:52:06.363Z,2292.00
2018-12-06T11:53:06.377Z,2300.00
2018-12-06T11:54:06.356Z,2336.00
2018-12-06T11:55:06.536Z,2376.00
2018-12-06T11:56:06.391Z,2344.00
2018-12-06T11:57:06.309Z,2132.00
2018-12-06T11:58:11.423Z,1904.00
2018-12-06T11:59:06.302Z,1896.00
2018-12-06T12:00:06.286Z,2064.00
2018-12-06T12:01:06.357Z,2264.00
2018-12-06T12:02:09.868Z,2480.00
2018-12-06T12:03:06.569Z,2456.00
2018-12-06T12:04:06.281Z,2372.00
2018-12-06T12:05:06.443Z,2264.00
2018-12-06T12:06:06.279Z,2120.00
2018-12-06T12:07:06.211Z,1936.00
2018-12-06T12:08:06.198Z,1736.00
2018-12-06T12:09:06.198Z,1532.00
2018-12-06T12:10:06.189Z,1380.00
2018-12-06T12:11:06.181Z,1300.00
2018-12-06T12:12:16.906Z,1288.00
2018-12-06T12:13:06.157Z,1308.00
2018-12-06T12:14:06.139Z,1340.00
2018-12-06T12:15:06.823Z,1368.00
2018-12-06T12:16:06.109Z,1376.00
2018-12-06T12:17:06.160Z,1408.00
2018-12-06T12:18:06.157Z,1460.00
2018-12-06T12:19:06.077Z,1480.00
2018-12-06T12:20:06.674Z,1512.00
2018-12-06T12:21:06.057Z,1608.00
2018-12-06T12:22:06.082Z,1776.00
2018-12-06T12:23:06.162Z,1864.00
2018-12-06T12:24:06.075Z,1796.00
2018-12-06T12:25:06.063Z,1784.00
2018-12-06T12:26:06.025Z,1780.00
2018-12-06T12:27:06.028Z,1604.00
2018-12-06T12:28:06.140Z,1420.00
2018-12-06T12:29:06.014Z,1340.00
2018-12-06T12:30:05.979Z,1352.00
2018-12-06T12:31:06.172Z,1512.00
2018-12-06T12:32:06.040Z,1580.00
2018-12-06T12:33:05.957Z,1552.00
2018-12-06T12:34:05.960Z,1496.00
2018-12-06T12:35:05.945Z,1376.00
2018-12-06T12:36:05.993Z,1292.00
2018-12-06T12:37:05.957Z,1260.00
2018-12-06T12:38:05.976Z,1248.00
2018-12-06T12:39:05.906Z,1152.00
2018-12-06T12:40:05.923Z,1052.00
2018-12-06T12:41:05.867Z,976.00
2018-12-06T12:42:06.642Z,948.00
2018-12-06T12:43:07.339Z,868.00
2018-12-06T12:44:05.825Z,788.00
2018-12-06T12:45:06.046Z,776.00
2018-12-06T12:46:05.853Z,764.00
2018-12-06T12:47:05.830Z,776.00